Latest Weather Observations for Bushy Park

IDT60801

Issued at 7:03 pm EDT Friday 27 March 2015 (issued every 30 minutes, with the page automatically refreshed every 10 minutes)

About weather observations | Map of weather stations | Latest weather observations for TAS | Other Formats
Station Details ID: 095003 Name: BUSHY PARK (BUSHY PARK ESTATES) Lat: -42.71 Lon: 146.90 Height: 27.0 m
Data from the previous 72 hours. | See also: Recent months at Bushy Park
Date/Time
EDT
Temp
°C
App
Temp
°C
Dew
Point
Rel
Hum
%
Delta-T
°C
Wind Press
QNH
hPa
Press
MSL
hPa
Rain
since 9 am
mm
Dir
 
Spd
km/h
Gust
km/h
Spd
kts
Gust
kts
27/07:00pm 13.0 11.7 9.3 78 1.9 SW 6 11 3 6 - - 7.8
27/06:30pm 13.6 10.8 8.7 72 2.5 SW 13 20 7 11 - - 7.8
27/06:00pm 14.2 11.8 8.5 68 2.9 SW 11 17 6 9 - - 7.8
27/05:30pm 14.7 9.4 8.4 66 3.2 S 26 35 14 19 - - 7.8
27/05:00pm 14.1 9.7 8.8 70 2.7 SSW 22 33 12 18 - - 7.8
27/04:30pm 14.0 9.7 9.3 73 2.4 S 22 30 12 16 - - 7.8
27/04:00pm 13.7 10.1 9.9 78 2.0 S 19 24 10 13 - - 7.8
27/03:30pm 14.3 12.0 10.3 77 2.1 SSW 13 24 7 13 - - 7.8
27/03:00pm 14.1 11.3 10.1 77 2.1 SSW 15 26 8 14 - - 7.8
27/02:30pm 13.7 12.0 11.3 85 1.3 SW 11 17 6 9 - - 7.8
27/02:00pm 13.2 10.0 11.1 87 1.1 SSW 19 28 10 15 - - 7.8
27/01:30pm 11.7 10.6 10.5 92 0.6 SW 7 9 4 5 - - 7.6
27/01:00pm 11.4 10.4 10.4 94 0.5 NE 6 9 3 5 - - 6.4
27/12:30pm 10.9 9.2 9.9 93 0.5 N 9 15 5 8 - - 6.0
27/12:00pm 10.7 9.9 9.5 92 0.6 W 4 9 2 5 - - 5.8
27/11:30am 9.8 8.8 8.8 93 0.5 NE 4 9 2 5 - - 5.6
27/11:00am 9.1 7.0 8.3 95 0.4 NE 9 11 5 6 - - 5.4
27/10:30am 8.6 7.4 8.0 96 0.3 W 4 9 2 5 - - 4.8
27/10:00am 8.3 7.0 7.7 96 0.3 E 4 9 2 5 - - 3.0
27/09:30am 8.1 6.1 7.3 95 0.4 E 7 9 4 5 - - 1.8
27/09:00am 8.0 6.6 7.2 95 0.4 ESE 4 9 2 5 - - 3.2
27/08:30am 8.0 4.8 6.9 93 0.5 N 13 17 7 9 - - 2.2
27/08:00am 7.8 4.5 6.5 91 0.6 N 13 15 7 8 - - 2.0
27/07:30am 7.7 3.2 6.2 90 0.7 N 19 24 10 13 - - 1.6
27/07:00am 7.6 4.7 6.5 93 0.5 NNE 11 17 6 9 - - 1.4
27/06:30am 7.3 3.9 6.0 91 0.6 N 13 22 7 12 - - 1.2
27/06:00am 6.3 4.2 5.6 95 0.3 NNE 6 11 3 6 - - 0.8
27/05:30am 6.0 4.9 5.3 95 0.3 CALM 0 0 0 0 - - 0.6
27/05:00am 6.0 3.6 5.1 94 0.4 N 7 9 4 5 - - 0.6
27/04:30am 5.5 2.6 4.8 95 0.3 N 9 11 5 6 - - 0.4
27/04:00am 4.6 1.6 4.1 97 0.2 N 9 13 5 7 - - 0.4
27/03:30am 4.7 1.7 4.2 97 0.2 NW 9 13 5 7 - - 0.4
27/03:00am 4.4 1.7 3.7 95 0.3 SSW 7 9 4 5 - - 0.4
27/02:30am 4.7 1.7 4.2 97 0.2 NNW 9 9 5 5 - - 0.4
27/02:00am 4.4 2.3 3.7 95 0.3 N 4 7 2 4 - - 0.4
27/01:30am 4.7 1.7 4.0 95 0.3 N 9 11 5 6 - - 0.4
27/01:00am 4.8 2.4 4.3 97 0.2 W 6 11 3 6 - - 0.4
27/12:30am 5.2 2.3 4.5 95 0.3 S 9 11 5 6 - - 0.4
27/12:00am 6.1 3.9 5.2 94 0.4 NNW 6 7 3 4 - - 0.4
 
Date/Time
EDT
Temp
°C
App
Temp
°C
Dew
Point
Rel
Hum
%
Delta-T
°C
Wind Press
QNH
hPa
Press
MSL
hPa
Rain
since 9 am
mm
Dir
 
Spd
km/h
Gust
km/h
Spd
kts
Gust
kts
26/11:30pm 5.9 2.3 4.8 93 0.5 WSW 13 15 7 8 - - 0.4
26/11:00pm 7.1 4.4 5.5 89 0.7 WSW 9 11 5 6 - - 0.4
26/10:30pm 6.9 5.2 5.8 93 0.5 W 4 9 2 5 - - 0.4
26/10:00pm 7.7 5.5 6.2 90 0.7 W 7 11 4 6 - - 0.4
26/09:30pm 8.8 6.7 6.0 82 1.3 NNW 6 9 3 5 - - 0.4
26/09:00pm 9.1 6.5 6.1 81 1.4 NNW 9 13 5 7 - - 0.4
26/08:30pm 9.9 7.3 6.3 78 1.7 W 9 13 5 7 - - 0.4
26/08:00pm 11.4 9.4 6.1 70 2.5 W 6 9 3 5 - - 0.4
26/07:30pm 12.4 9.0 5.9 64 3.1 SW 13 22 7 12 - - 0.4
26/07:00pm 12.4 9.8 6.3 66 2.9 WSW 9 13 5 7 - - 0.4
26/06:30pm 13.7 11.1 6.2 60 3.6 NW 9 11 5 6 - - 0.4
26/06:00pm 14.3 11.3 6.0 57 4.0 WSW 11 17 6 9 - - 0.4
26/05:30pm 15.4 11.9 5.4 51 4.8 WSW 13 24 7 13 - - 0.4
26/05:00pm 15.7 11.8 3.3 43 5.7 WNW 13 19 7 10 - - 0.4
26/04:30pm 14.7 12.2 8.4 66 3.2 NNW 11 20 6 11 - - 0.4
26/04:00pm 16.0 13.7 5.7 50 5.0 NW 7 15 4 8 - - 0.4
26/03:30pm 16.6 14.3 7.3 54 4.6 NE 9 13 5 7 - - 0.4
26/03:00pm 15.0 13.1 6.9 58 4.0 NE 6 9 3 5 - - 0.4
26/02:30pm 15.1 13.0 6.8 57 4.1 ESE 7 11 4 6 - - 0.4
26/02:00pm 14.0 12.1 6.9 62 3.4 E 6 7 3 4 - - 0.4
26/01:30pm 14.4 11.9 6.6 59 3.8 N 9 13 5 7 - - 0.4
26/01:00pm 13.7 11.5 7.7 67 3.0 NNE 9 13 5 7 - - 0.4
26/12:30pm 12.7 11.4 9.2 79 1.8 N 6 9 3 5 - - 0.4
26/12:00pm 12.4 9.9 9.7 83 1.4 NNW 13 15 7 8 - - 0.4
26/11:30am 12.4 10.7 9.9 85 1.3 NW 9 11 5 6 - - 0.4
26/11:00am 10.9 9.2 9.7 92 0.6 S 9 13 5 7 - - 0.4
26/10:30am 10.2 8.8 9.4 95 0.4 E 7 11 4 6 - - 0.2
26/10:00am 9.6 7.6 8.8 95 0.4 W 9 11 5 6 - - 0.2
26/09:30am 9.2 7.6 8.6 96 0.3 NNW 7 11 4 6 - - 0.0
26/09:00am 8.9 7.2 8.5 97 0.2 WSW 7 11 4 6 - - 8.0
26/08:30am 8.5 6.4 8.1 97 0.2 SSE 9 13 5 7 - - 8.0
26/08:00am 8.3 7.1 7.9 97 0.2 SE 4 9 2 5 - - 7.6
26/07:30am 8.3 6.7 7.9 97 0.2 NNE 6 7 3 4 - - 6.2
26/07:00am 8.2 6.5 7.6 96 0.3 N 6 11 3 6 - - 4.0
26/06:30am 8.1 6.1 7.3 95 0.4 NNW 7 9 4 5 - - 1.8
26/06:00am 7.6 5.5 6.7 94 0.4 SSW 7 9 4 5 - - 0.6
26/05:30am 7.5 6.3 6.4 93 0.5 E 2 7 1 4 - - 0.0
26/05:00am 7.1 5.0 6.0 93 0.5 W 6 7 3 4 - - 0.0
26/04:30am 5.9 3.4 4.8 93 0.5 SSW 7 11 4 6 - - 0.0
26/04:00am 5.2 2.2 4.3 94 0.4 W 9 13 5 7 - - 0.0
26/03:30am 6.3 3.4 4.9 91 0.6 WNW 9 13 5 7 - - 0.0
26/03:00am 6.7 4.6 5.6 93 0.5 W 6 11 3 6 - - 0.0
26/02:30am 7.2 4.5 5.7 90 0.7 WNW 9 13 5 7 - - 0.0
26/02:00am 7.1 4.4 5.5 89 0.7 SW 9 17 5 9 - - 0.0
26/01:30am 7.9 5.9 6.4 90 0.7 SW 6 9 3 5 - - 0.0
26/01:00am 8.7 7.7 7.2 90 0.7 SE 2 9 1 5 - - 0.0
26/12:30am 9.8 9.2 7.5 85 1.1 CALM 0 6 0 3 - - 0.0
26/12:00am 10.7 8.8 7.4 80 1.6 ENE 7 9 4 5 - - 0.0
 
Date/Time
EDT
Temp
°C
App
Temp
°C
Dew
Point
Rel
Hum
%
Delta-T
°C
Wind Press
QNH
hPa
Press
MSL
hPa
Rain
since 9 am
mm
Dir
 
Spd
km/h
Gust
km/h
Spd
kts
Gust
kts
25/11:30pm 12.3 10.3 6.9 69 2.6 ESE 7 15 4 8 - - 0.0
25/11:00pm 12.5 9.6 6.7 68 2.8 SE 11 15 6 8 - - 0.0
25/10:30pm 13.4 10.1 6.6 63 3.3 SE 13 22 7 12 - - 0.0
25/10:00pm 14.1 10.4 6.2 59 3.8 SE 15 20 8 11 - - 0.0
25/09:30pm 14.3 10.6 6.3 58 3.8 SSE 15 22 8 12 - - 0.0
25/09:00pm 13.8 10.5 6.6 62 3.5 SSE 13 17 7 9 - - 0.0
25/08:30pm 14.5 11.2 6.3 58 3.9 SE 13 17 7 9 - - 0.0
25/08:00pm 13.9 12.2 7.7 66 3.1 ESE 6 9 3 5 - - 0.0
25/07:30pm 14.9 13.2 9.9 72 2.6 SW 9 11 5 6 - - 0.0
25/07:00pm 15.6 13.9 8.4 62 3.6 N 7 9 4 5 - - 0.0
25/06:30pm 17.2 15.2 8.7 57 4.4 N 9 11 5 6 - - 0.0
25/06:00pm 18.4 16.2 7.7 49 5.4 N 9 11 5 6 - - 0.0
25/05:30pm 19.0 15.8 5.1 40 6.7 N 11 17 6 9 - - 0.0
25/05:00pm 20.1 15.7 4.5 36 7.5 NNE 17 22 9 12 - - 0.0
25/04:30pm 20.1 15.9 3.6 33 7.8 N 15 22 8 12 - - 0.0
25/04:00pm 20.6 15.6 3.8 33 8.0 N 19 26 10 14 - - 0.0
25/03:30pm 19.5 16.1 3.9 35 7.4 NNW 11 17 6 9 - - 0.0
25/03:00pm 19.1 14.5 3.8 36 7.2 N 17 26 9 14 - - 0.0
25/02:30pm 18.3 13.3 3.8 38 6.8 N 19 26 10 14 - - 0.0
25/02:00pm 19.1 13.3 4.4 38 7.0 N 24 33 13 18 - - 0.0
25/01:30pm 18.8 14.3 4.0 37 7.0 N 17 33 9 18 - - 0.0
25/01:00pm 18.2 13.7 4.2 39 6.6 NW 17 22 9 12 - - 0.0
25/12:30pm 18.0 12.8 3.6 38 6.7 NW 20 33 11 18 - - 0.0
25/12:00pm 15.9 13.6 4.8 47 5.2 NNE 6 7 3 4 - - 0.0
25/11:30am 15.4 12.5 4.6 48 5.1 NNW 9 15 5 8 - - 0.0
25/11:00am 14.6 11.0 5.1 53 4.5 N 13 17 7 9 - - 0.0
25/10:30am 13.4 10.7 5.6 59 3.7 NNE 9 13 5 7 - - 0.0
25/10:00am 10.4 8.1 5.7 72 2.2 ENE 7 11 4 6 - - 0.0
25/09:30am 9.5 7.3 5.1 74 2.0 ENE 6 9 3 5 - - 0.0
25/09:00am 8.1 5.8 4.7 79 1.5 NNE 6 7 3 4 - - 0.0
25/08:30am 5.5 3.2 4.6 94 0.4 NNW 6 7 3 4 - - 0.0
25/08:00am 4.4 2.6 3.4 93 0.4 NW 2 4 1 2 - - 0.0
25/07:30am 4.2 2.7 3.2 93 0.4 CALM 0 0 0 0 - - 0.0
25/07:00am 4.5 2.0 3.5 93 0.4 NNW 6 7 3 4 - - 0.0
25/06:30am 4.3 2.9 3.3 93 0.4 CALM 0 0 0 0 - - 0.0
25/06:00am 4.2 2.7 3.2 93 0.4 CALM 0 0 0 0 - - 0.0
25/05:30am 3.7 0.5 3.0 95 0.3 SSW 9 11 5 6 - - 0.0
25/05:00am 3.3 1.0 2.6 95 0.3 NE 4 9 2 5 - - 0.0
25/04:30am 2.9 0.1 2.1 94 0.3 W 6 9 3 5 - - 0.0
25/04:00am 1.5 -0.4 0.7 94 0.3 CALM 0 0 0 0 - - 0.0
25/03:30am 1.7 -1.3 0.6 92 0.4 SW 6 7 3 4 - - 0.0
25/03:00am 1.6 -1.0 0.8 94 0.3 SSW 4 9 2 5 - - 0.0
25/02:30am 1.6 -0.3 0.8 94 0.3 CALM 0 0 0 0 - - 0.0
25/02:00am 2.1 0.3 1.3 94 0.3 CALM 0 0 0 0 - - 0.0
25/01:30am 2.6 0.9 1.6 93 0.4 CALM 0 0 0 0 - - 0.0
25/01:00am 3.1 0.6 1.8 91 0.5 NE 4 7 2 4 - - 0.0
25/12:30am 3.6 2.0 2.6 93 0.4 CALM 0 0 0 0 - - 0.0
25/12:00am 4.0 1.3 2.8 92 0.5 NE 6 7 3 4 - - 0.0
 
Date/Time
EDT
Temp
°C
App
Temp
°C
Dew
Point
Rel
Hum
%
Delta-T
°C
Wind Press
QNH
hPa
Press
MSL
hPa
Rain
since 9 am
mm
Dir
 
Spd
km/h
Gust
km/h
Spd
kts
Gust
kts
24/11:30pm 4.7 3.2 2.8 87 0.8 CALM 0 0 0 0 - - 0.0
24/11:00pm 5.3 2.5 3.1 86 0.9 SSW 7 9 4 5 - - 0.0
24/10:30pm 6.0 3.3 3.7 85 1.0 N 7 9 4 5 - - 0.0
24/10:00pm 7.3 4.6 3.8 78 1.5 WNW 7 9 4 5 - - 0.0
24/09:30pm 7.7 4.8 4.5 80 1.4 N 9 11 5 6 - - 0.0
24/09:00pm 9.2 6.2 4.3 71 2.2 N 9 11 5 6 - - 0.0
24/08:30pm 9.3 5.6 4.4 71 2.2 NNW 13 17 7 9 - - 0.0
24/08:00pm 10.9 7.3 2.9 58 3.5 WNW 11 17 6 9 - - 0.0
24/07:30pm 11.7 8.1 3.1 55 3.8 WNW 11 15 6 8 - - 0.0

Other Formats:

Comma delimited format used in spreadsheet applications
http://www.bom.gov.au/fwo/IDT60801/IDT60801.94964.axf

JavaScript Object Notation format (JSON) in row-major order
http://www.bom.gov.au/fwo/IDT60801/IDT60801.94964.json